sensor_id;sensor_type;location;lat;lon;timestamp;P1;durP1;ratioP1;P2;durP2;ratioP2
19905;SDS011;10115;50.906;4.438;2024-02-15T00:02:13;14.63;;;13.43;;
19905;SDS011;10115;50.906;4.438;2024-02-15T00:04:39;13.23;;;12.23;;
19905;SDS011;10115;50.906;4.438;2024-02-15T00:07:05;26.17;;;24.50;;
19905;SDS011;10115;50.906;4.438;2024-02-15T00:09:31;23.63;;;22.00;;
19905;SDS011;10115;50.906;4.438;2024-02-15T00:11:57;12.03;;;10.80;;
19905;SDS011;10115;50.906;4.438;2024-02-15T00:14:25;11.73;;;11.03;;
19905;SDS011;10115;50.906;4.438;2024-02-15T00:16:52;15.33;;;10.67;;
19905;SDS011;10115;50.906;4.438;2024-02-15T00:19:18;10.97;;;10.20;;
19905;SDS011;10115;50.906;4.438;2024-02-15T00:21:44;12.47;;;11.20;;
19905;SDS011;10115;50.906;4.438;2024-02-15T00:24:10;13.90;;;11.00;;
19905;SDS011;10115;50.906;4.438;2024-02-15T00:26:35;12.07;;;11.17;;
19905;SDS011;10115;50.906;4.438;2024-02-15T00:29:01;14.80;;;10.40;;
19905;SDS011;10115;50.906;4.438;2024-02-15T00:31:26;14.03;;;10.63;;
19905;SDS011;10115;50.906;4.438;2024-02-15T00:33:52;11.37;;;10.50;;
19905;SDS011;10115;50.906;4.438;2024-02-15T00:36:19;11.60;;;10.60;;
19905;SDS011;10115;50.906;4.438;2024-02-15T00:38:44;15.50;;;13.87;;
19905;SDS011;10115;50.906;4.438;2024-02-15T00:41:10;12.57;;;11.37;;
19905;SDS011;10115;50.906;4.438;2024-02-15T00:43:37;25.30;;;23.23;;
19905;SDS011;10115;50.906;4.438;2024-02-15T00:46:03;25.67;;;23.93;;
19905;SDS011;10115;50.906;4.438;2024-02-15T00:48:28;22.57;;;21.37;;
19905;SDS011;10115;50.906;4.438;2024-02-15T00:50:55;18.73;;;17.70;;
19905;SDS011;10115;50.906;4.438;2024-02-15T00:53:21;27.87;;;26.10;;
19905;SDS011;10115;50.906;4.438;2024-02-15T00:55:47;16.47;;;13.80;;
19905;SDS011;10115;50.906;4.438;2024-02-15T00:58:13;12.90;;;11.70;;
19905;SDS011;10115;50.906;4.438;2024-02-15T01:00:38;12.17;;;11.07;;
19905;SDS011;10115;50.906;4.438;2024-02-15T01:03:04;13.43;;;11.80;;
19905;SDS011;10115;50.906;4.438;2024-02-15T01:05:29;27.07;;;25.37;;
19905;SDS011;10115;50.906;4.438;2024-02-15T01:07:55;27.27;;;25.77;;
19905;SDS011;10115;50.906;4.438;2024-02-15T01:10:22;25.07;;;23.50;;
19905;SDS011;10115;50.906;4.438;2024-02-15T01:12:49;26.00;;;24.23;;
19905;SDS011;10115;50.906;4.438;2024-02-15T01:15:15;12.57;;;11.77;;
19905;SDS011;10115;50.906;4.438;2024-02-15T01:17:45;15.73;;;14.83;;
19905;SDS011;10115;50.906;4.438;2024-02-15T01:20:11;14.83;;;13.23;;
19905;SDS011;10115;50.906;4.438;2024-02-15T01:22:36;20.97;;;19.07;;
19905;SDS011;10115;50.906;4.438;2024-02-15T01:25:02;13.77;;;12.77;;
19905;SDS011;10115;50.906;4.438;2024-02-15T01:27:28;13.27;;;12.17;;
19905;SDS011;10115;50.906;4.438;2024-02-15T01:29:56;14.77;;;13.50;;
19905;SDS011;10115;50.906;4.438;2024-02-15T01:32:22;14.40;;;13.50;;
19905;SDS011;10115;50.906;4.438;2024-02-15T01:34:48;13.70;;;12.80;;
19905;SDS011;10115;50.906;4.438;2024-02-15T01:37:16;14.47;;;13.20;;
19905;SDS011;10115;50.906;4.438;2024-02-15T01:39:42;12.87;;;11.83;;
19905;SDS011;10115;50.906;4.438;2024-02-15T01:42:07;14.53;;;13.50;;
19905;SDS011;10115;50.906;4.438;2024-02-15T01:44:33;26.77;;;25.40;;
19905;SDS011;10115;50.906;4.438;2024-02-15T01:47:01;27.63;;;25.63;;
19905;SDS011;10115;50.906;4.438;2024-02-15T01:49:29;26.57;;;24.90;;
19905;SDS011;10115;50.906;4.438;2024-02-15T01:51:55;12.27;;;11.00;;
19905;SDS011;10115;50.906;4.438;2024-02-15T01:54:22;11.97;;;10.70;;
19905;SDS011;10115;50.906;4.438;2024-02-15T01:56:48;12.37;;;11.67;;
19905;SDS011;10115;50.906;4.438;2024-02-15T01:59:14;11.97;;;11.30;;
19905;SDS011;10115;50.906;4.438;2024-02-15T02:01:41;11.83;;;10.90;;
19905;SDS011;10115;50.906;4.438;2024-02-15T02:04:07;10.83;;;10.27;;
19905;SDS011;10115;50.906;4.438;2024-02-15T02:06:34;12.77;;;11.97;;
19905;SDS011;10115;50.906;4.438;2024-02-15T02:09:02;13.53;;;12.40;;
19905;SDS011;10115;50.906;4.438;2024-02-15T02:11:28;14.63;;;13.73;;
19905;SDS011;10115;50.906;4.438;2024-02-15T02:13:54;24.57;;;23.33;;
19905;SDS011;10115;50.906;4.438;2024-02-15T02:16:24;12.33;;;11.67;;
19905;SDS011;10115;50.906;4.438;2024-02-15T02:18:57;27.33;;;25.93;;
19905;SDS011;10115;50.906;4.438;2024-02-15T02:21:23;15.17;;;14.37;;
19905;SDS011;10115;50.906;4.438;2024-02-15T02:23:57;13.73;;;13.03;;
19905;SDS011;10115;50.906;4.438;2024-02-15T02:26:24;17.10;;;16.30;;
19905;SDS011;10115;50.906;4.438;2024-02-15T02:28:50;12.03;;;11.43;;
19905;SDS011;10115;50.906;4.438;2024-02-15T02:31:20;11.37;;;10.67;;
19905;SDS011;10115;50.906;4.438;2024-02-15T02:33:50;13.03;;;11.77;;
19905;SDS011;10115;50.906;4.438;2024-02-15T02:36:18;12.70;;;11.70;;
19905;SDS011;10115;50.906;4.438;2024-02-15T02:38:44;14.00;;;13.10;;
19905;SDS011;10115;50.906;4.438;2024-02-15T02:41:10;12.67;;;11.87;;
19905;SDS011;10115;50.906;4.438;2024-02-15T02:43:39;12.87;;;11.97;;
19905;SDS011;10115;50.906;4.438;2024-02-15T02:46:05;11.97;;;11.27;;
19905;SDS011;10115;50.906;4.438;2024-02-15T02:48:31;11.50;;;11.00;;
19905;SDS011;10115;50.906;4.438;2024-02-15T02:50:57;11.80;;;11.00;;
19905;SDS011;10115;50.906;4.438;2024-02-15T02:53:23;13.47;;;12.50;;
19905;SDS011;10115;50.906;4.438;2024-02-15T02:55:49;26.13;;;24.93;;
19905;SDS011;10115;50.906;4.438;2024-02-15T02:58:16;13.07;;;12.10;;
19905;SDS011;10115;50.906;4.438;2024-02-15T03:00:42;14.03;;;13.07;;
19905;SDS011;10115;50.906;4.438;2024-02-15T03:03:08;12.90;;;12.00;;
19905;SDS011;10115;50.906;4.438;2024-02-15T03:05:34;17.83;;;16.53;;
19905;SDS011;10115;50.906;4.438;2024-02-15T03:08:00;18.17;;;16.53;;
19905;SDS011;10115;50.906;4.438;2024-02-15T03:10:26;13.03;;;12.17;;
19905;SDS011;10115;50.906;4.438;2024-02-15T03:12:51;13.33;;;12.43;;
19905;SDS011;10115;50.906;4.438;2024-02-15T03:15:17;13.37;;;12.27;;
19905;SDS011;10115;50.906;4.438;2024-02-15T03:17:44;26.63;;;25.43;;
19905;SDS011;10115;50.906;4.438;2024-02-15T03:20:12;27.40;;;25.93;;
19905;SDS011;10115;50.906;4.438;2024-02-15T03:22:58;10.93;;;10.43;;
19905;SDS011;10115;50.906;4.438;2024-02-15T03:25:27;12.13;;;11.10;;
19905;SDS011;10115;50.906;4.438;2024-02-15T03:27:55;12.10;;;11.17;;
19905;SDS011;10115;50.906;4.438;2024-02-15T03:30:22;11.87;;;10.97;;
19905;SDS011;10115;50.906;4.438;2024-02-15T03:32:50;11.53;;;10.73;;
19905;SDS011;10115;50.906;4.438;2024-02-15T03:35:18;10.97;;;10.37;;
19905;SDS011;10115;50.906;4.438;2024-02-15T03:37:47;11.07;;;10.43;;
19905;SDS011;10115;50.906;4.438;2024-02-15T03:40:16;11.60;;;10.63;;
19905;SDS011;10115;50.906;4.438;2024-02-15T03:42:42;13.77;;;12.57;;
19905;SDS011;10115;50.906;4.438;2024-02-15T03:45:08;22.50;;;20.73;;
19905;SDS011;10115;50.906;4.438;2024-02-15T03:47:34;21.80;;;20.63;;
19905;SDS011;10115;50.906;4.438;2024-02-15T03:50:04;20.67;;;19.60;;
19905;SDS011;10115;50.906;4.438;2024-02-15T03:52:31;12.67;;;11.87;;
19905;SDS011;10115;50.906;4.438;2024-02-15T03:54:57;11.57;;;10.67;;
19905;SDS011;10115;50.906;4.438;2024-02-15T03:57:24;14.07;;;12.97;;
19905;SDS011;10115;50.906;4.438;2024-02-15T03:59:53;22.90;;;21.30;;
19905;SDS011;10115;50.906;4.438;2024-02-15T04:02:21;11.43;;;10.63;;
19905;SDS011;10115;50.906;4.438;2024-02-15T04:04:48;11.50;;;10.60;;
19905;SDS011;10115;50.906;4.438;2024-02-15T04:07:17;11.63;;;10.97;;
19905;SDS011;10115;50.906;4.438;2024-02-15T04:09:44;11.70;;;10.90;;
19905;SDS011;10115;50.906;4.438;2024-02-15T04:12:16;26.67;;;25.47;;
19905;SDS011;10115;50.906;4.438;2024-02-15T04:14:44;26.73;;;25.33;;
19905;SDS011;10115;50.906;4.438;2024-02-15T04:17:11;28.20;;;26.67;;
19905;SDS011;10115;50.906;4.438;2024-02-15T04:19:42;28.23;;;26.80;;
19905;SDS011;10115;50.906;4.438;2024-02-15T04:22:09;14.53;;;13.73;;
19905;SDS011;10115;50.906;4.438;2024-02-15T04:24:35;13.57;;;12.77;;
19905;SDS011;10115;50.906;4.438;2024-02-15T04:27:05;12.30;;;11.40;;
19905;SDS011;10115;50.906;4.438;2024-02-15T04:29:33;10.93;;;10.43;;
19905;SDS011;10115;50.906;4.438;2024-02-15T04:31:59;11.87;;;11.10;;
19905;SDS011;10115;50.906;4.438;2024-02-15T04:34:24;11.60;;;10.90;;
19905;SDS011;10115;50.906;4.438;2024-02-15T04:36:51;10.63;;;9.83;;
19905;SDS011;10115;50.906;4.438;2024-02-15T04:39:20;11.17;;;10.47;;
19905;SDS011;10115;50.906;4.438;2024-02-15T04:41:50;11.57;;;10.50;;
19905;SDS011;10115;50.906;4.438;2024-02-15T04:44:16;12.50;;;11.50;;
19905;SDS011;10115;50.906;4.438;2024-02-15T04:46:45;24.03;;;22.43;;
19905;SDS011;10115;50.906;4.438;2024-02-15T04:49:11;27.33;;;26.00;;
19905;SDS011;10115;50.906;4.438;2024-02-15T04:51:38;28.70;;;27.23;;
19905;SDS011;10115;50.906;4.438;2024-02-15T04:54:06;27.70;;;26.40;;
19905;SDS011;10115;50.906;4.438;2024-02-15T04:56:32;28.97;;;27.20;;
19905;SDS011;10115;50.906;4.438;2024-02-15T04:58:58;14.90;;;13.43;;
19905;SDS011;10115;50.906;4.438;2024-02-15T05:01:24;10.50;;;9.80;;
19905;SDS011;10115;50.906;4.438;2024-02-15T05:03:49;11.13;;;10.33;;
19905;SDS011;10115;50.906;4.438;2024-02-15T05:06:15;10.97;;;10.37;;
19905;SDS011;10115;50.906;4.438;2024-02-15T05:08:40;12.83;;;11.50;;
19905;SDS011;10115;50.906;4.438;2024-02-15T05:11:10;12.03;;;11.03;;
19905;SDS011;10115;50.906;4.438;2024-02-15T05:13:47;10.83;;;10.13;;
19905;SDS011;10115;50.906;4.438;2024-02-15T05:16:16;15.77;;;10.40;;
19905;SDS011;10115;50.906;4.438;2024-02-15T05:18:42;10.77;;;10.07;;
19905;SDS011;10115;50.906;4.438;2024-02-15T05:21:08;10.70;;;10.07;;
19905;SDS011;10115;50.906;4.438;2024-02-15T05:23:36;10.43;;;9.77;;
19905;SDS011;10115;50.906;4.438;2024-02-15T05:26:05;13.60;;;10.60;;
19905;SDS011;10115;50.906;4.438;2024-02-15T05:28:31;10.13;;;9.23;;
19905;SDS011;10115;50.906;4.438;2024-02-15T05:33:41;9.97;;;9.47;;
19905;SDS011;10115;50.906;4.438;2024-02-15T05:36:15;10.47;;;9.50;;
19905;SDS011;10115;50.906;4.438;2024-02-15T05:38:46;9.90;;;9.37;;
19905;SDS011;10115;50.906;4.438;2024-02-15T05:41:12;9.83;;;9.30;;
19905;SDS011;10115;50.906;4.438;2024-02-15T05:43:38;10.07;;;9.17;;
19905;SDS011;10115;50.906;4.438;2024-02-15T05:46:06;10.40;;;9.83;;
19905;SDS011;10115;50.906;4.438;2024-02-15T05:48:33;10.17;;;9.50;;
19905;SDS011;10115;50.906;4.438;2024-02-15T05:51:05;9.90;;;9.30;;
19905;SDS011;10115;50.906;4.438;2024-02-15T05:53:32;9.87;;;9.37;;
19905;SDS011;10115;50.906;4.438;2024-02-15T05:56:02;11.67;;;10.70;;
19905;SDS011;10115;50.906;4.438;2024-02-15T05:58:46;12.47;;;11.37;;
19905;SDS011;10115;50.906;4.438;2024-02-15T06:01:12;10.87;;;10.30;;
19905;SDS011;10115;50.906;4.438;2024-02-15T06:03:38;27.00;;;25.17;;
19905;SDS011;10115;50.906;4.438;2024-02-15T06:06:05;23.50;;;22.20;;
19905;SDS011;10115;50.906;4.438;2024-02-15T06:08:35;20.00;;;18.87;;
19905;SDS011;10115;50.906;4.438;2024-02-15T06:11:01;13.60;;;12.70;;
19905;SDS011;10115;50.906;4.438;2024-02-15T06:13:28;22.33;;;20.57;;
19905;SDS011;10115;50.906;4.438;2024-02-15T06:15:55;21.27;;;20.23;;
19905;SDS011;10115;50.906;4.438;2024-02-15T06:18:21;21.17;;;19.83;;
19905;SDS011;10115;50.906;4.438;2024-02-15T06:20:54;11.73;;;11.23;;
19905;SDS011;10115;50.906;4.438;2024-02-15T06:23:22;13.07;;;12.37;;
19905;SDS011;10115;50.906;4.438;2024-02-15T06:25:50;9.73;;;9.23;;
19905;SDS011;10115;50.906;4.438;2024-02-15T06:28:21;13.57;;;12.57;;
19905;SDS011;10115;50.906;4.438;2024-02-15T06:31:09;13.00;;;12.30;;
19905;SDS011;10115;50.906;4.438;2024-02-15T06:33:54;26.37;;;25.17;;
19905;SDS011;10115;50.906;4.438;2024-02-15T06:36:39;24.67;;;23.37;;
19905;SDS011;10115;50.906;4.438;2024-02-15T06:39:31;16.80;;;15.90;;
19905;SDS011;10115;50.906;4.438;2024-02-15T06:42:03;13.17;;;12.07;;
19905;SDS011;10115;50.906;4.438;2024-02-15T06:44:29;18.03;;;16.73;;
19905;SDS011;10115;50.906;4.438;2024-02-15T06:46:55;13.03;;;12.13;;
19905;SDS011;10115;50.906;4.438;2024-02-15T06:49:21;19.20;;;18.00;;
19905;SDS011;10115;50.906;4.438;2024-02-15T06:51:50;11.33;;;10.63;;
19905;SDS011;10115;50.906;4.438;2024-02-15T06:54:16;24.80;;;23.63;;
19905;SDS011;10115;50.906;4.438;2024-02-15T06:56:43;14.33;;;13.57;;
19905;SDS011;10115;50.906;4.438;2024-02-15T06:59:11;13.90;;;12.67;;
19905;SDS011;10115;50.906;4.438;2024-02-15T07:01:41;13.33;;;12.73;;
19905;SDS011;10115;50.906;4.438;2024-02-15T07:04:08;20.00;;;19.00;;
19905;SDS011;10115;50.906;4.438;2024-02-15T07:06:37;26.40;;;24.90;;
19905;SDS011;10115;50.906;4.438;2024-02-15T07:09:03;14.33;;;12.80;;
19905;SDS011;10115;50.906;4.438;2024-02-15T07:11:32;23.83;;;22.43;;
19905;SDS011;10115;50.906;4.438;2024-02-15T07:13:59;11.97;;;11.37;;
19905;SDS011;10115;50.906;4.438;2024-02-15T07:16:26;11.53;;;10.80;;
19905;SDS011;10115;50.906;4.438;2024-02-15T07:18:52;24.90;;;23.43;;
19905;SDS011;10115;50.906;4.438;2024-02-15T07:21:19;17.83;;;16.77;;
19905;SDS011;10115;50.906;4.438;2024-02-15T07:23:50;15.70;;;14.77;;
19905;SDS011;10115;50.906;4.438;2024-02-15T07:26:16;22.73;;;21.63;;
19905;SDS011;10115;50.906;4.438;2024-02-15T07:28:45;12.07;;;11.37;;
19905;SDS011;10115;50.906;4.438;2024-02-15T07:31:11;26.70;;;25.10;;
19905;SDS011;10115;50.906;4.438;2024-02-15T07:33:37;19.93;;;18.93;;
19905;SDS011;10115;50.906;4.438;2024-02-15T07:36:04;18.20;;;17.30;;
19905;SDS011;10115;50.906;4.438;2024-02-15T07:38:29;17.40;;;16.50;;
19905;SDS011;10115;50.906;4.438;2024-02-15T07:40:59;22.07;;;21.03;;
19905;SDS011;10115;50.906;4.438;2024-02-15T07:43:25;26.23;;;24.53;;
19905;SDS011;10115;50.906;4.438;2024-02-15T07:45:51;11.93;;;11.23;;
19905;SDS011;10115;50.906;4.438;2024-02-15T07:48:17;11.07;;;10.40;;
19905;SDS011;10115;50.906;4.438;2024-02-15T07:50:43;13.10;;;11.90;;
19905;SDS011;10115;50.906;4.438;2024-02-15T07:53:09;15.43;;;14.47;;
19905;SDS011;10115;50.906;4.438;2024-02-15T07:55:36;17.07;;;15.97;;
19905;SDS011;10115;50.906;4.438;2024-02-15T07:58:03;14.47;;;13.47;;
19905;SDS011;10115;50.906;4.438;2024-02-15T08:00:29;26.23;;;24.93;;
19905;SDS011;10115;50.906;4.438;2024-02-15T08:02:55;15.97;;;15.17;;
19905;SDS011;10115;50.906;4.438;2024-02-15T08:05:22;16.80;;;15.70;;
19905;SDS011;10115;50.906;4.438;2024-02-15T08:07:48;26.20;;;25.00;;
19905;SDS011;10115;50.906;4.438;2024-02-15T08:10:14;15.63;;;14.93;;
19905;SDS011;10115;50.906;4.438;2024-02-15T08:12:43;15.63;;;14.70;;
19905;SDS011;10115;50.906;4.438;2024-02-15T08:15:10;15.60;;;14.83;;
19905;SDS011;10115;50.906;4.438;2024-02-15T08:17:42;12.90;;;12.03;;
19905;SDS011;10115;50.906;4.438;2024-02-15T08:20:11;12.97;;;12.07;;
19905;SDS011;10115;50.906;4.438;2024-02-15T08:22:38;14.00;;;13.30;;
19905;SDS011;10115;50.906;4.438;2024-02-15T08:25:13;11.87;;;11.27;;
19905;SDS011;10115;50.906;4.438;2024-02-15T08:27:41;14.53;;;13.03;;
19905;SDS011;10115;50.906;4.438;2024-02-15T08:30:12;12.43;;;11.60;;
19905;SDS011;10115;50.906;4.438;2024-02-15T08:32:42;11.37;;;10.23;;
19905;SDS011;10115;50.906;4.438;2024-02-15T08:35:09;19.50;;;18.40;;
19905;SDS011;10115;50.906;4.438;2024-02-15T08:37:38;21.20;;;20.00;;
19905;SDS011;10115;50.906;4.438;2024-02-15T08:40:07;20.60;;;19.60;;
19905;SDS011;10115;50.906;4.438;2024-02-15T08:42:41;20.73;;;19.30;;
19905;SDS011;10115;50.906;4.438;2024-02-15T08:45:07;19.57;;;18.67;;
19905;SDS011;10115;50.906;4.438;2024-02-15T08:47:41;19.43;;;18.50;;
19905;SDS011;10115;50.906;4.438;2024-02-15T08:50:07;20.27;;;19.13;;
19905;SDS011;10115;50.906;4.438;2024-02-15T08:52:35;13.73;;;12.93;;
19905;SDS011;10115;50.906;4.438;2024-02-15T08:55:04;21.00;;;20.03;;
19905;SDS011;10115;50.906;4.438;2024-02-15T08:57:34;26.30;;;24.90;;
19905;SDS011;10115;50.906;4.438;2024-02-15T09:00:04;24.40;;;23.00;;
19905;SDS011;10115;50.906;4.438;2024-02-15T09:02:38;18.53;;;17.63;;
19905;SDS011;10115;50.906;4.438;2024-02-15T09:05:13;13.77;;;12.53;;
19905;SDS011;10115;50.906;4.438;2024-02-15T09:07:48;9.97;;;9.43;;
19905;SDS011;10115;50.906;4.438;2024-02-15T09:10:16;9.70;;;9.10;;
19905;SDS011;10115;50.906;4.438;2024-02-15T09:12:42;9.83;;;8.83;;
19905;SDS011;10115;50.906;4.438;2024-02-15T09:15:10;11.37;;;10.70;;
19905;SDS011;10115;50.906;4.438;2024-02-15T09:17:36;11.53;;;10.73;;
19905;SDS011;10115;50.906;4.438;2024-02-15T09:20:06;9.67;;;9.17;;
19905;SDS011;10115;50.906;4.438;2024-02-15T09:22:34;9.23;;;8.83;;
19905;SDS011;10115;50.906;4.438;2024-02-15T09:25:01;9.40;;;8.87;;
19905;SDS011;10115;50.906;4.438;2024-02-15T09:27:27;9.60;;;9.00;;
19905;SDS011;10115;50.906;4.438;2024-02-15T09:29:53;9.87;;;9.17;;
19905;SDS011;10115;50.906;4.438;2024-02-15T09:32:20;17.00;;;9.90;;
19905;SDS011;10115;50.906;4.438;2024-02-15T09:34:47;8.60;;;8.20;;
19905;SDS011;10115;50.906;4.438;2024-02-15T09:37:13;9.13;;;8.67;;
19905;SDS011;10115;50.906;4.438;2024-02-15T09:39:39;8.83;;;8.43;;
19905;SDS011;10115;50.906;4.438;2024-02-15T09:42:04;9.07;;;8.57;;
19905;SDS011;10115;50.906;4.438;2024-02-15T09:44:30;9.43;;;8.53;;
19905;SDS011;10115;50.906;4.438;2024-02-15T09:47:05;9.40;;;9.00;;
19905;SDS011;10115;50.906;4.438;2024-02-15T09:49:37;10.33;;;9.57;;
19905;SDS011;10115;50.906;4.438;2024-02-15T09:52:04;9.97;;;9.43;;
19905;SDS011;10115;50.906;4.438;2024-02-15T09:54:41;10.10;;;9.40;;
19905;SDS011;10115;50.906;4.438;2024-02-15T09:57:11;9.03;;;8.53;;
19905;SDS011;10115;50.906;4.438;2024-02-15T09:59:37;8.67;;;8.17;;
19905;SDS011;10115;50.906;4.438;2024-02-15T10:02:03;10.07;;;9.50;;
19905;SDS011;10115;50.906;4.438;2024-02-15T10:04:34;10.30;;;9.33;;
19905;SDS011;10115;50.906;4.438;2024-02-15T10:07:00;8.73;;;8.07;;
19905;SDS011;10115;50.906;4.438;2024-02-15T10:09:29;9.43;;;8.73;;
19905;SDS011;10115;50.906;4.438;2024-02-15T10:11:56;9.30;;;8.70;;
19905;SDS011;10115;50.906;4.438;2024-02-15T10:14:23;8.70;;;8.30;;
19905;SDS011;10115;50.906;4.438;2024-02-15T10:16:50;9.33;;;8.73;;
19905;SDS011;10115;50.906;4.438;2024-02-15T10:19:17;8.80;;;8.30;;
19905;SDS011;10115;50.906;4.438;2024-02-15T10:21:45;9.03;;;8.40;;
19905;SDS011;10115;50.906;4.438;2024-02-15T10:24:11;9.73;;;9.10;;
19905;SDS011;10115;50.906;4.438;2024-02-15T10:26:37;10.17;;;9.33;;
19905;SDS011;10115;50.906;4.438;2024-02-15T10:29:09;9.73;;;9.13;;
19905;SDS011;10115;50.906;4.438;2024-02-15T10:31:40;9.70;;;9.03;;
19905;SDS011;10115;50.906;4.438;2024-02-15T10:34:17;9.63;;;8.93;;
19905;SDS011;10115;50.906;4.438;2024-02-15T10:36:44;8.90;;;8.50;;
19905;SDS011;10115;50.906;4.438;2024-02-15T10:39:10;10.73;;;9.60;;
19905;SDS011;10115;50.906;4.438;2024-02-15T10:41:41;11.97;;;8.40;;
19905;SDS011;10115;50.906;4.438;2024-02-15T10:44:13;8.47;;;8.07;;
19905;SDS011;10115;50.906;4.438;2024-02-15T10:46:41;9.07;;;8.53;;
19905;SDS011;10115;50.906;4.438;2024-02-15T10:49:08;9.20;;;8.70;;
19905;SDS011;10115;50.906;4.438;2024-02-15T10:51:34;9.20;;;8.80;;
19905;SDS011;10115;50.906;4.438;2024-02-15T10:54:03;10.30;;;9.70;;
19905;SDS011;10115;50.906;4.438;2024-02-15T10:56:34;9.33;;;8.83;;
19905;SDS011;10115;50.906;4.438;2024-02-15T10:59:17;9.23;;;8.63;;
19905;SDS011;10115;50.906;4.438;2024-02-15T11:01:45;10.17;;;9.57;;
19905;SDS011;10115;50.906;4.438;2024-02-15T11:04:15;9.43;;;8.47;;
19905;SDS011;10115;50.906;4.438;2024-02-15T11:06:46;8.43;;;7.93;;
19905;SDS011;10115;50.906;4.438;2024-02-15T11:09:15;8.97;;;8.57;;
19905;SDS011;10115;50.906;4.438;2024-02-15T11:11:42;9.30;;;8.80;;
19905;SDS011;10115;50.906;4.438;2024-02-15T11:14:28;9.33;;;8.50;;
19905;SDS011;10115;50.906;4.438;2024-02-15T11:16:58;9.70;;;8.93;;
19905;SDS011;10115;50.906;4.438;2024-02-15T11:22:08;8.87;;;8.27;;
19905;SDS011;10115;50.906;4.438;2024-02-15T11:24:35;9.07;;;8.47;;
19905;SDS011;10115;50.906;4.438;2024-02-15T11:27:03;8.90;;;8.30;;
19905;SDS011;10115;50.906;4.438;2024-02-15T11:35:04;9.53;;;8.43;;
19905;SDS011;10115;50.906;4.438;2024-02-15T11:42:52;8.97;;;8.47;;
19905;SDS011;10115;50.906;4.438;2024-02-15T11:45:29;9.30;;;8.73;;
19905;SDS011;10115;50.906;4.438;2024-02-15T11:47:58;8.90;;;8.27;;
19905;SDS011;10115;50.906;4.438;2024-02-15T11:50:26;7.90;;;7.50;;
19905;SDS011;10115;50.906;4.438;2024-02-15T11:52:55;8.87;;;8.23;;
19905;SDS011;10115;50.906;4.438;2024-02-15T11:55:31;8.80;;;8.20;;
19905;SDS011;10115;50.906;4.438;2024-02-15T11:58:01;8.70;;;8.20;;
19905;SDS011;10115;50.906;4.438;2024-02-15T12:00:48;9.10;;;8.27;;
19905;SDS011;10115;50.906;4.438;2024-02-15T12:03:32;9.33;;;8.73;;
19905;SDS011;10115;50.906;4.438;2024-02-15T12:06:17;9.73;;;9.07;;
19905;SDS011;10115;50.906;4.438;2024-02-15T12:09:02;8.97;;;8.20;;
19905;SDS011;10115;50.906;4.438;2024-02-15T12:11:47;8.67;;;8.10;;
19905;SDS011;10115;50.906;4.438;2024-02-15T12:14:31;8.37;;;7.87;;
19905;SDS011;10115;50.906;4.438;2024-02-15T12:17:14;9.67;;;8.87;;
19905;SDS011;10115;50.906;4.438;2024-02-15T12:20:00;9.20;;;8.70;;
19905;SDS011;10115;50.906;4.438;2024-02-15T12:22:35;9.73;;;8.80;;
19905;SDS011;10115;50.906;4.438;2024-02-15T12:25:15;10.10;;;9.43;;
19905;SDS011;10115;50.906;4.438;2024-02-15T12:27:42;9.20;;;8.53;;
19905;SDS011;10115;50.906;4.438;2024-02-15T12:30:16;8.90;;;8.40;;
19905;SDS011;10115;50.906;4.438;2024-02-15T12:32:45;10.50;;;8.53;;
19905;SDS011;10115;50.906;4.438;2024-02-15T12:35:13;8.90;;;8.40;;
19905;SDS011;10115;50.906;4.438;2024-02-15T12:37:44;8.53;;;7.93;;
19905;SDS011;10115;50.906;4.438;2024-02-15T12:40:19;9.33;;;8.83;;
19905;SDS011;10115;50.906;4.438;2024-02-15T12:42:47;9.60;;;9.00;;
19905;SDS011;10115;50.906;4.438;2024-02-15T12:45:19;8.23;;;7.87;;
19905;SDS011;10115;50.906;4.438;2024-02-15T12:47:52;8.90;;;8.50;;
19905;SDS011;10115;50.906;4.438;2024-02-15T12:50:19;9.23;;;8.83;;
19905;SDS011;10115;50.906;4.438;2024-02-15T12:52:50;9.33;;;8.73;;
19905;SDS011;10115;50.906;4.438;2024-02-15T12:55:17;7.97;;;7.50;;
19905;SDS011;10115;50.906;4.438;2024-02-15T12:57:50;8.70;;;8.30;;
19905;SDS011;10115;50.906;4.438;2024-02-15T13:00:18;8.80;;;8.10;;
19905;SDS011;10115;50.906;4.438;2024-02-15T13:02:46;8.53;;;8.13;;
19905;SDS011;10115;50.906;4.438;2024-02-15T13:05:14;7.83;;;7.43;;
19905;SDS011;10115;50.906;4.438;2024-02-15T13:07:44;9.00;;;8.50;;
19905;SDS011;10115;50.906;4.438;2024-02-15T13:10:11;8.27;;;7.67;;
19905;SDS011;10115;50.906;4.438;2024-02-15T13:12:39;8.67;;;7.97;;
19905;SDS011;10115;50.906;4.438;2024-02-15T13:15:10;9.47;;;8.63;;
19905;SDS011;10115;50.906;4.438;2024-02-15T13:17:48;8.80;;;8.30;;
19905;SDS011;10115;50.906;4.438;2024-02-15T13:20:16;8.83;;;8.20;;
19905;SDS011;10115;50.906;4.438;2024-02-15T13:22:45;7.90;;;7.30;;
19905;SDS011;10115;50.906;4.438;2024-02-15T13:25:13;8.43;;;7.83;;
19905;SDS011;10115;50.906;4.438;2024-02-15T13:27:41;7.77;;;7.37;;
19905;SDS011;10115;50.906;4.438;2024-02-15T13:30:08;7.47;;;7.13;;
19905;SDS011;10115;50.906;4.438;2024-02-15T13:32:37;8.33;;;7.83;;
19905;SDS011;10115;50.906;4.438;2024-02-15T13:35:05;7.77;;;7.37;;
19905;SDS011;10115;50.906;4.438;2024-02-15T13:37:47;7.97;;;7.57;;
19905;SDS011;10115;50.906;4.438;2024-02-15T13:40:14;8.57;;;7.93;;
19905;SDS011;10115;50.906;4.438;2024-02-15T13:42:50;9.27;;;8.67;;
19905;SDS011;10115;50.906;4.438;2024-02-15T13:45:24;8.33;;;7.93;;
19905;SDS011;10115;50.906;4.438;2024-02-15T13:47:53;8.43;;;7.93;;
19905;SDS011;10115;50.906;4.438;2024-02-15T13:50:18;8.17;;;7.77;;
19905;SDS011;10115;50.906;4.438;2024-02-15T13:52:44;8.03;;;7.33;;
19905;SDS011;10115;50.906;4.438;2024-02-15T13:55:14;7.80;;;7.50;;
19905;SDS011;10115;50.906;4.438;2024-02-15T13:57:44;8.57;;;8.07;;
19905;SDS011;10115;50.906;4.438;2024-02-15T14:00:16;8.73;;;8.23;;
19905;SDS011;10115;50.906;4.438;2024-02-15T14:02:50;8.03;;;7.60;;
19905;SDS011;10115;50.906;4.438;2024-02-15T14:05:19;8.83;;;8.23;;
19905;SDS011;10115;50.906;4.438;2024-02-15T14:07:52;8.93;;;8.53;;
19905;SDS011;10115;50.906;4.438;2024-02-15T14:10:24;9.50;;;8.77;;
19905;SDS011;10115;50.906;4.438;2024-02-15T14:12:52;7.80;;;7.40;;
19905;SDS011;10115;50.906;4.438;2024-02-15T14:15:20;8.80;;;8.20;;
19905;SDS011;10115;50.906;4.438;2024-02-15T14:17:46;7.80;;;7.50;;
19905;SDS011;10115;50.906;4.438;2024-02-15T14:20:12;7.43;;;7.13;;
19905;SDS011;10115;50.906;4.438;2024-02-15T14:22:39;8.17;;;7.77;;
19905;SDS011;10115;50.906;4.438;2024-02-15T14:25:14;7.87;;;7.13;;
19905;SDS011;10115;50.906;4.438;2024-02-15T14:27:40;7.90;;;7.50;;
19905;SDS011;10115;50.906;4.438;2024-02-15T14:30:07;8.13;;;7.73;;
19905;SDS011;10115;50.906;4.438;2024-02-15T14:32:52;8.77;;;8.00;;
19905;SDS011;10115;50.906;4.438;2024-02-15T14:35:33;8.33;;;7.93;;
19905;SDS011;10115;50.906;4.438;2024-02-15T14:38:04;8.03;;;7.50;;
19905;SDS011;10115;50.906;4.438;2024-02-15T14:40:35;8.13;;;7.53;;
19905;SDS011;10115;50.906;4.438;2024-02-15T14:43:02;8.37;;;7.87;;
19905;SDS011;10115;50.906;4.438;2024-02-15T14:45:30;8.40;;;7.93;;
19905;SDS011;10115;50.906;4.438;2024-02-15T14:47:57;8.40;;;8.00;;
19905;SDS011;10115;50.906;4.438;2024-02-15T14:50:23;9.07;;;8.23;;
19905;SDS011;10115;50.906;4.438;2024-02-15T14:52:50;9.23;;;8.80;;
19905;SDS011;10115;50.906;4.438;2024-02-15T14:55:18;7.77;;;7.37;;
19905;SDS011;10115;50.906;4.438;2024-02-15T14:57:47;8.07;;;7.67;;